createdAt,value
2023-04-17T00:04:04.113Z,100.00
2023-04-17T00:09:00.705Z,100.00
2023-04-17T00:13:57.127Z,100.00
2023-04-17T00:18:54.440Z,100.00
2023-04-17T00:23:50.887Z,100.00
2023-04-17T00:28:48.791Z,100.00
2023-04-17T00:33:46.241Z,100.00
2023-04-17T00:38:42.727Z,100.00
2023-04-17T00:43:39.297Z,100.00
2023-04-17T00:48:38.653Z,100.00
2023-04-17T00:53:36.135Z,100.00
2023-04-17T00:58:34.935Z,100.00
2023-04-17T01:08:43.925Z,100.00
2023-04-17T01:13:46.762Z,100.00
2023-04-17T01:18:43.386Z,100.00
2023-04-17T01:23:54.730Z,100.00
2023-04-17T01:28:52.705Z,100.00
2023-04-17T01:33:49.608Z,100.00
2023-04-17T01:38:46.094Z,100.00
2023-04-17T01:43:44.743Z,100.00
2023-04-17T01:48:41.279Z,100.00
2023-04-17T01:53:40.315Z,100.00
2023-04-17T01:58:36.723Z,100.00
2023-04-17T02:03:33.325Z,100.00
2023-04-17T02:08:30.045Z,100.00
2023-04-17T02:13:26.502Z,100.00
2023-04-17T02:18:23.187Z,100.00
2023-04-17T02:23:19.667Z,100.00
2023-04-17T02:28:16.412Z,100.00
2023-04-17T02:33:12.880Z,100.00
2023-04-17T02:38:09.492Z,100.00
2023-04-17T02:43:05.915Z,100.00
2023-04-17T02:48:03.002Z,100.00
2023-04-17T02:52:59.412Z,100.00
2023-04-17T02:57:55.940Z,100.00
2023-04-17T03:02:52.801Z,100.00
2023-04-17T03:07:53.120Z,100.00
2023-04-17T03:12:49.841Z,100.00
2023-04-17T03:17:47.274Z,100.00
2023-04-17T03:22:43.736Z,100.00
2023-04-17T03:27:40.800Z,100.00
2023-04-17T03:32:38.377Z,100.00
2023-04-17T03:37:34.912Z,100.00
2023-04-17T03:42:31.373Z,100.00
2023-04-17T03:47:27.857Z,100.00
2023-04-17T03:52:24.351Z,100.00
2023-04-17T03:57:20.788Z,100.00
2023-04-17T04:02:17.396Z,100.00
2023-04-17T04:07:14.002Z,100.00
2023-04-17T04:12:11.015Z,100.00
2023-04-17T04:17:07.401Z,100.00
2023-04-17T04:22:06.728Z,100.00
2023-04-17T04:27:06.671Z,100.00
2023-04-17T04:32:04.221Z,100.00
2023-04-17T04:37:01.228Z,100.00
2023-04-17T04:42:05.611Z,100.00
2023-04-17T04:47:02.281Z,100.00
2023-04-17T04:51:58.783Z,100.00
2023-04-17T04:56:55.600Z,100.00
2023-04-17T05:01:52.158Z,100.00
2023-04-17T05:06:48.646Z,100.00
2023-04-17T05:11:45.051Z,100.00
2023-04-17T05:16:41.528Z,100.00
2023-04-17T05:21:37.972Z,100.00
2023-04-17T05:26:34.730Z,100.00
2023-04-17T05:31:31.202Z,100.00
2023-04-17T05:36:27.761Z,100.00
2023-04-17T05:41:24.280Z,100.00
2023-04-17T05:46:20.903Z,100.00
2023-04-17T05:51:17.463Z,100.00
2023-04-17T05:56:14.145Z,100.00
2023-04-17T06:01:13.002Z,100.00
2023-04-17T06:06:09.450Z,100.00
2023-04-17T06:11:06.949Z,100.00
2023-04-17T06:16:03.452Z,100.00
2023-04-17T06:20:59.867Z,100.00
2023-04-17T06:25:56.735Z,100.00
2023-04-17T06:30:53.150Z,100.00
2023-04-17T06:35:49.539Z,100.00
2023-04-17T06:40:46.607Z,100.00
2023-04-17T06:45:43.147Z,100.00
2023-04-17T06:50:39.600Z,100.00
2023-04-17T06:55:38.285Z,100.00
2023-04-17T07:00:34.850Z,100.00
2023-04-17T07:05:31.300Z,100.00
2023-04-17T07:10:27.726Z,100.00
2023-04-17T07:15:24.176Z,100.00
2023-04-17T07:20:21.403Z,100.00
2023-04-17T07:25:17.902Z,100.00
2023-04-17T07:30:14.849Z,100.00
2023-04-17T07:35:11.321Z,100.00
2023-04-17T07:40:09.628Z,100.00
2023-04-17T07:45:06.706Z,100.00
2023-04-17T07:50:03.369Z,100.00
2023-04-17T07:54:59.844Z,100.00
2023-04-17T07:59:56.549Z,100.00
2023-04-17T08:04:54.411Z,100.00
2023-04-17T08:09:51.128Z,100.00
2023-04-17T08:14:47.536Z,100.00
2023-04-17T08:19:43.927Z,100.00
2023-04-17T08:24:40.843Z,100.00
2023-04-17T08:29:37.618Z,100.00
2023-04-17T08:34:36.303Z,100.00
2023-04-17T08:39:32.766Z,100.00
2023-04-17T08:44:29.226Z,100.00
2023-04-17T08:49:29.268Z,100.00
2023-04-17T08:54:25.736Z,100.00
2023-04-17T08:59:23.876Z,100.00
2023-04-17T09:04:39.956Z,100.00
2023-04-17T09:09:50.631Z,100.00
2023-04-17T09:14:47.590Z,100.00
2023-04-17T09:20:07.066Z,100.00
2023-04-17T09:25:04.533Z,100.00
2023-04-17T09:30:04.040Z,100.00
2023-04-17T09:35:03.682Z,100.00
2023-04-17T09:40:02.067Z,100.00
2023-04-17T09:45:18.981Z,100.00
2023-04-17T09:50:21.976Z,100.00
2023-04-17T09:55:23.791Z,100.00
2023-04-17T10:00:21.864Z,100.00
2023-04-17T10:05:20.378Z,100.00
2023-04-17T10:10:33.191Z,100.00
2023-04-17T10:15:29.653Z,100.00
2023-04-17T10:20:28.321Z,100.00
2023-04-17T10:25:26.660Z,100.00
2023-04-17T10:30:23.815Z,100.00
2023-04-17T10:35:20.745Z,100.00
2023-04-17T10:40:22.026Z,100.00
2023-04-17T10:45:19.249Z,100.00
2023-04-17T10:50:17.284Z,100.00
2023-04-17T10:55:20.902Z,100.00
2023-04-17T11:00:18.569Z,92.40
2023-04-17T11:05:15.508Z,85.83
2023-04-17T11:10:13.274Z,82.97
2023-04-17T11:15:10.143Z,81.02
2023-04-17T11:20:06.970Z,63.91
2023-04-17T11:25:04.156Z,61.55
2023-04-17T11:30:01.095Z,54.02
2023-04-17T11:34:57.808Z,63.39
2023-04-17T11:40:06.025Z,64.07
2023-04-17T11:45:04.797Z,62.67
2023-04-17T11:50:01.440Z,61.30
2023-04-17T11:54:58.490Z,54.26
2023-04-17T11:59:55.025Z,57.31
2023-04-17T12:04:52.297Z,57.06
2023-04-17T12:09:56.919Z,56.45
2023-04-17T12:14:53.293Z,55.82
2023-04-17T12:19:50.175Z,54.87
2023-04-17T12:24:46.706Z,46.59
2023-04-17T12:29:44.803Z,50.76
2023-04-17T12:34:41.582Z,48.21
2023-04-17T12:39:38.116Z,41.41
2023-04-17T12:44:34.636Z,44.32
2023-04-17T12:49:31.134Z,41.81
2023-04-17T12:54:27.595Z,39.53
2023-04-17T12:59:23.996Z,34.98
2023-04-17T13:04:20.849Z,33.05
2023-04-17T13:09:17.923Z,34.82
2023-04-17T13:14:15.228Z,33.50
2023-04-17T13:19:12.138Z,39.06
2023-04-17T13:24:14.375Z,41.05
2023-04-17T13:29:10.924Z,42.83
2023-04-17T13:34:07.675Z,43.62
2023-04-17T13:39:07.217Z,39.82
2023-04-17T13:44:04.127Z,40.87
2023-04-17T13:49:00.676Z,43.96
2023-04-17T13:54:00.726Z,41.63
2023-04-17T13:58:57.883Z,39.99
2023-04-17T14:03:54.448Z,47.41
2023-04-17T14:08:51.007Z,44.25
2023-04-17T14:13:47.399Z,47.06
2023-04-17T14:18:45.644Z,51.58
2023-04-17T14:23:43.052Z,55.85
2023-04-17T14:28:39.753Z,58.06
2023-04-17T14:33:36.170Z,50.28
2023-04-17T14:38:33.570Z,56.15
2023-04-17T14:43:30.015Z,66.21
2023-04-17T14:48:26.489Z,63.43
2023-04-17T14:53:22.933Z,73.13
2023-04-17T14:58:19.352Z,68.77
2023-04-17T15:03:15.967Z,72.90
2023-04-17T15:08:12.502Z,67.53
2023-04-17T15:13:08.945Z,67.37
2023-04-17T15:18:05.683Z,77.22
2023-04-17T15:23:02.841Z,78.85
2023-04-17T15:27:59.354Z,71.50
2023-04-17T15:32:55.924Z,69.03
2023-04-17T15:37:52.548Z,59.09
2023-04-17T15:42:49.039Z,54.24
2023-04-17T15:47:45.590Z,50.24
2023-04-17T15:52:42.010Z,54.21
2023-04-17T15:57:39.324Z,53.11
2023-04-17T16:02:36.624Z,54.12
2023-04-17T16:07:33.136Z,52.29
2023-04-17T16:12:29.559Z,58.01
2023-04-17T16:17:26.029Z,56.89
2023-04-17T16:22:22.523Z,62.73
2023-04-17T16:27:18.958Z,55.01
2023-04-17T16:32:15.374Z,49.90
2023-04-17T16:37:11.802Z,53.40
2023-04-17T16:42:09.373Z,51.83
2023-04-17T16:47:13.193Z,48.88
2023-04-17T16:52:10.933Z,44.09
2023-04-17T16:57:08.092Z,43.42
2023-04-17T17:02:04.543Z,41.19
2023-04-17T17:07:01.306Z,47.38
2023-04-17T17:11:57.837Z,45.89
2023-04-17T17:16:54.359Z,50.02
2023-04-17T17:21:50.961Z,53.46
2023-04-17T17:26:47.376Z,56.12
2023-04-17T17:31:43.874Z,61.33
2023-04-17T17:36:40.324Z,65.06
2023-04-17T17:41:36.794Z,71.93
2023-04-17T17:46:35.707Z,75.47
2023-04-17T17:51:32.542Z,77.55
2023-04-17T17:56:29.019Z,74.32
2023-04-17T18:01:25.536Z,84.06
2023-04-17T18:06:22.035Z,82.04
2023-04-17T18:11:18.827Z,89.11
2023-04-17T18:16:15.514Z,89.39
2023-04-17T18:21:12.664Z,93.69
2023-04-17T18:26:09.094Z,100.00
2023-04-17T18:31:05.500Z,100.00
2023-04-17T18:36:01.976Z,100.00
2023-04-17T18:40:59.397Z,100.00
2023-04-17T18:45:55.850Z,100.00
2023-04-17T18:50:52.336Z,100.00
2023-04-17T18:55:48.809Z,100.00
2023-04-17T19:00:45.300Z,100.00
2023-04-17T19:05:41.871Z,100.00
2023-04-17T19:10:40.024Z,100.00
2023-04-17T19:15:36.662Z,100.00
2023-04-17T19:20:33.153Z,100.00
2023-04-17T19:25:29.716Z,100.00
2023-04-17T19:30:26.100Z,100.00
2023-04-17T19:35:22.686Z,100.00
2023-04-17T19:40:24.905Z,100.00
2023-04-17T19:45:22.323Z,100.00
2023-04-17T19:50:18.788Z,100.00
2023-04-17T19:55:15.323Z,100.00
2023-04-17T20:00:12.713Z,100.00
2023-04-17T20:05:09.702Z,100.00
2023-04-17T20:10:06.985Z,100.00
2023-04-17T20:15:03.700Z,100.00
2023-04-17T20:20:00.146Z,100.00
2023-04-17T20:24:56.523Z,100.00
2023-04-17T20:29:53.003Z,100.00
2023-04-17T20:34:49.460Z,100.00
2023-04-17T20:39:45.887Z,100.00
2023-04-17T20:44:42.368Z,100.00
2023-04-17T20:49:38.762Z,100.00
2023-04-17T20:54:35.218Z,100.00
2023-04-17T20:59:34.009Z,100.00
2023-04-17T21:04:33.419Z,100.00
2023-04-17T21:09:30.166Z,100.00
2023-04-17T21:14:27.152Z,100.00
2023-04-17T21:19:26.997Z,100.00
2023-04-17T21:24:24.269Z,100.00
2023-04-17T21:29:20.787Z,100.00
2023-04-17T21:34:17.225Z,100.00
2023-04-17T21:39:13.677Z,100.00
2023-04-17T21:44:10.597Z,100.00
2023-04-17T21:49:07.149Z,100.00
2023-04-17T21:54:04.107Z,100.00
2023-04-17T21:59:00.928Z,100.00
2023-04-17T22:03:57.364Z,100.00
2023-04-17T22:08:53.891Z,100.00
2023-04-17T22:13:50.355Z,100.00
2023-04-17T22:18:46.758Z,100.00
2023-04-17T22:23:43.229Z,100.00
2023-04-17T22:28:39.626Z,100.00
2023-04-17T22:33:36.067Z,100.00
2023-04-17T22:38:32.509Z,100.00
2023-04-17T22:43:28.912Z,100.00
2023-04-17T22:48:25.551Z,100.00
2023-04-17T22:53:22.544Z,100.00
2023-04-17T22:58:19.040Z,100.00
2023-04-17T23:03:15.494Z,100.00
2023-04-17T23:08:11.920Z,100.00
2023-04-17T23:13:08.348Z,100.00
2023-04-17T23:18:04.850Z,100.00
2023-04-17T23:23:01.707Z,100.00
2023-04-17T23:27:58.210Z,100.00
2023-04-17T23:32:55.407Z,100.00
2023-04-17T23:37:51.843Z,100.00
2023-04-17T23:42:48.300Z,100.00
2023-04-17T23:47:44.765Z,100.00
2023-04-17T23:52:41.255Z,100.00
2023-04-17T23:57:38.404Z,100.00
